createdAt,value
2022-09-20T00:02:05.009Z,98332.78
2022-09-20T00:07:07.116Z,98342.06
2022-09-20T00:12:10.168Z,98328.13
2022-09-20T00:17:12.032Z,98335.97
2022-09-20T00:22:13.886Z,98337.66
2022-09-20T00:27:15.691Z,98334.63
2022-09-20T00:32:17.653Z,98337.78
2022-09-20T00:37:19.608Z,98340.91
2022-09-20T00:42:46.942Z,98333.91
2022-09-20T00:47:53.721Z,98331.38
2022-09-20T00:53:06.149Z,98331.13
2022-09-20T00:58:09.485Z,98320.00
2022-09-20T01:03:15.545Z,98327.00
2022-09-20T01:08:18.360Z,98324.59
2022-09-20T01:13:20.173Z,98341.75
2022-09-20T01:18:23.523Z,98344.47
2022-09-20T01:23:28.282Z,98331.69
2022-09-20T01:28:30.620Z,98338.91
2022-09-20T01:33:53.479Z,98337.63
2022-09-20T01:39:10.523Z,98331.41
2022-09-20T01:44:40.519Z,98331.13
2022-09-20T01:50:23.579Z,98331.19
2022-09-20T01:55:57.231Z,98335.97
2022-09-20T02:01:24.373Z,98332.63
2022-09-20T02:06:54.622Z,98323.75
2022-09-20T02:12:08.364Z,98338.19
2022-09-20T02:17:14.913Z,98328.78
2022-09-20T02:22:54.238Z,98338.28
2022-09-20T02:28:14.157Z,98344.34
2022-09-20T02:33:37.186Z,98322.34
2022-09-20T02:38:46.493Z,98347.19
2022-09-20T02:44:00.348Z,98348.78
2022-09-20T02:49:20.072Z,98350.56
2022-09-20T02:54:46.212Z,98342.38
2022-09-20T02:59:58.726Z,98349.34
2022-09-20T03:05:06.209Z,98361.09
2022-09-20T03:10:32.742Z,98357.22
2022-09-20T03:15:58.037Z,98368.06
2022-09-20T03:21:11.905Z,98373.50
2022-09-20T03:26:19.586Z,98371.22
2022-09-20T03:31:41.710Z,98368.66
2022-09-20T03:37:04.924Z,98368.16
2022-09-20T03:42:23.390Z,98368.50
2022-09-20T03:47:43.653Z,98363.38
2022-09-20T03:53:19.900Z,98361.72
2022-09-20T03:58:30.826Z,98356.91
2022-09-20T04:03:35.588Z,98366.22
2022-09-20T04:08:56.105Z,98366.56
2022-09-20T04:14:12.922Z,98365.50
2022-09-20T04:19:32.774Z,98371.50
2022-09-20T04:25:13.864Z,98365.03
2022-09-20T04:30:44.018Z,98382.94
2022-09-20T04:36:15.440Z,98391.25
2022-09-20T04:41:34.490Z,98391.41
2022-09-20T04:46:57.926Z,98397.28
2022-09-20T04:52:04.153Z,98391.84
2022-09-20T04:57:36.852Z,98398.31
2022-09-20T05:02:57.837Z,98407.13
2022-09-20T05:08:37.123Z,98412.56
2022-09-20T05:14:01.123Z,98415.63
2022-09-20T05:19:10.349Z,98423.41
2022-09-20T05:24:35.056Z,98435.72
2022-09-20T05:29:42.410Z,98434.16
2022-09-20T05:34:53.885Z,98438.03
2022-09-20T05:40:22.107Z,98436.84
2022-09-20T05:45:45.578Z,98442.44
2022-09-20T05:51:18.847Z,98446.72
2022-09-20T05:56:42.996Z,98456.47
2022-09-20T06:02:29.669Z,98461.59
2022-09-20T06:08:13.030Z,98460.91
2022-09-20T06:13:50.337Z,98463.25
2022-09-20T06:19:32.515Z,98467.75
2022-09-20T06:24:37.468Z,98468.19
2022-09-20T06:29:44.175Z,98473.41
2022-09-20T06:34:47.812Z,98475.91
2022-09-20T06:40:29.847Z,98472.75
2022-09-20T06:45:32.289Z,98491.19
2022-09-20T06:50:36.311Z,98483.50
2022-09-20T06:55:41.025Z,98486.00
2022-09-20T07:00:42.939Z,98491.66
2022-09-20T07:05:44.739Z,98500.25
2022-09-20T07:10:46.604Z,98508.56
2022-09-20T07:15:48.639Z,98503.97
2022-09-20T07:20:50.472Z,98505.41
2022-09-20T07:25:52.918Z,98511.56
2022-09-20T07:30:54.713Z,98507.91
2022-09-20T07:35:56.584Z,98520.41
2022-09-20T07:41:01.024Z,98524.28
2022-09-20T07:46:03.257Z,98533.91
2022-09-20T07:51:08.905Z,98536.44
2022-09-20T07:56:15.896Z,98534.38
2022-09-20T08:01:17.771Z,98553.00
2022-09-20T08:06:21.460Z,98558.94
2022-09-20T08:11:27.846Z,98544.19
2022-09-20T08:16:31.151Z,98542.91
2022-09-20T08:21:34.878Z,98539.09
2022-09-20T08:26:37.280Z,98552.94
2022-09-20T08:31:42.409Z,98556.50
2022-09-20T08:36:47.111Z,98556.22
2022-09-20T08:41:56.823Z,98554.72
2022-09-20T08:47:22.507Z,98557.84
2022-09-20T08:52:37.081Z,98559.34
2022-09-20T08:57:39.188Z,98565.75
2022-09-20T09:02:41.744Z,98574.41
2022-09-20T09:07:43.573Z,98577.00
2022-09-20T09:12:48.716Z,98569.03
2022-09-20T09:17:50.786Z,98584.41
2022-09-20T09:23:05.606Z,98590.34
2022-09-20T09:28:07.392Z,98588.47
2022-09-20T09:33:31.065Z,98587.84
2022-09-20T09:38:38.454Z,98591.41
2022-09-20T09:43:40.714Z,98591.16
2022-09-20T09:48:42.719Z,98586.66
2022-09-20T09:53:46.499Z,98587.63
2022-09-20T09:58:58.099Z,98586.84
2022-09-20T10:04:36.473Z,98580.91
2022-09-20T10:09:59.507Z,98592.06
2022-09-20T10:15:40.465Z,98591.25
2022-09-20T10:21:00.747Z,98596.38
2022-09-20T10:26:22.485Z,98595.78
2022-09-20T10:31:36.963Z,98585.03
2022-09-20T10:36:43.712Z,98584.81
2022-09-20T10:42:18.760Z,98601.78
2022-09-20T10:47:28.976Z,98601.03
2022-09-20T10:52:36.530Z,98599.75
2022-09-20T10:57:56.542Z,98603.13
2022-09-20T11:03:13.771Z,98595.69
2022-09-20T11:08:25.599Z,98599.31
2022-09-20T11:14:04.272Z,98598.31
2022-09-20T11:19:31.446Z,98592.91
2022-09-20T11:24:51.549Z,98594.03
2022-09-20T11:30:02.115Z,98596.44
2022-09-20T11:35:29.409Z,98600.28
2022-09-20T11:40:38.713Z,98605.66
2022-09-20T11:45:43.268Z,98599.44
2022-09-20T11:50:47.799Z,98598.69
2022-09-20T11:56:02.126Z,98601.00
2022-09-20T12:01:12.907Z,98602.66
2022-09-20T12:07:09.696Z,98597.41
2022-09-20T12:12:32.872Z,98587.19
2022-09-20T12:17:47.055Z,98596.28
2022-09-20T12:22:49.037Z,98596.31
2022-09-20T12:27:50.965Z,98594.44
2022-09-20T12:32:56.517Z,98593.25
2022-09-20T12:38:37.658Z,98597.50
2022-09-20T12:43:58.997Z,98594.59
2022-09-20T12:49:48.518Z,98600.41
2022-09-20T12:54:53.603Z,98593.19
2022-09-20T12:59:59.565Z,98589.88
2022-09-20T13:05:01.513Z,98600.81
2022-09-20T13:10:17.193Z,98605.94
2022-09-20T13:15:21.911Z,98600.09
2022-09-20T13:20:28.140Z,98606.91
2022-09-20T13:25:30.736Z,98615.13
2022-09-20T13:30:32.992Z,98614.84
2022-09-20T13:35:35.119Z,98613.78
2022-09-20T13:40:42.627Z,98602.81
2022-09-20T13:45:45.125Z,98612.16
2022-09-20T13:50:51.349Z,98616.72
2022-09-20T13:55:55.752Z,98605.75
2022-09-20T14:01:37.621Z,98609.03
2022-09-20T14:06:39.527Z,98607.53
2022-09-20T14:11:41.554Z,98604.78
2022-09-20T14:16:46.773Z,98635.72
2022-09-20T14:21:49.275Z,98647.41
2022-09-20T14:27:04.724Z,98650.00
2022-09-20T14:32:12.232Z,98662.72
2022-09-20T14:37:26.037Z,98658.22
2022-09-20T14:42:35.529Z,98654.47
2022-09-20T14:47:55.637Z,98660.09
2022-09-20T14:53:13.900Z,98660.25
2022-09-20T14:58:15.861Z,98659.72
2022-09-20T15:03:25.589Z,98648.56
2022-09-20T15:08:27.747Z,98638.38
2022-09-20T15:13:29.697Z,98648.63
2022-09-20T15:18:37.257Z,98654.19
2022-09-20T15:23:40.572Z,98661.88
2022-09-20T15:28:43.012Z,98669.69
2022-09-20T15:33:44.905Z,98677.19
2022-09-20T15:38:46.824Z,98681.72
2022-09-20T15:43:50.397Z,98675.53
2022-09-20T15:48:53.205Z,98679.50
2022-09-20T15:53:57.441Z,98678.19
2022-09-20T15:59:04.030Z,98684.97
2022-09-20T16:04:14.242Z,98677.94
2022-09-20T16:09:16.626Z,98680.22
2022-09-20T16:14:18.690Z,98688.69
2022-09-20T16:19:21.097Z,98689.66
2022-09-20T16:24:28.061Z,98695.34
2022-09-20T16:29:30.880Z,98700.94
2022-09-20T16:34:34.920Z,98704.75
2022-09-20T16:39:37.366Z,98714.53
2022-09-20T16:44:42.214Z,98726.97
2022-09-20T16:49:44.608Z,98730.78
2022-09-20T16:54:46.813Z,98730.41
2022-09-20T16:59:48.992Z,98732.00
2022-09-20T17:04:51.145Z,98730.84
2022-09-20T17:10:00.848Z,98737.03
2022-09-20T17:15:02.796Z,98745.16
2022-09-20T17:20:06.816Z,98751.44
2022-09-20T17:25:09.681Z,98778.19
2022-09-20T17:30:12.106Z,98787.66
2022-09-20T17:35:14.486Z,98795.03
2022-09-20T17:40:16.488Z,98799.56
2022-09-20T17:45:18.828Z,98807.94
2022-09-20T17:50:20.742Z,98804.22
2022-09-20T17:55:23.348Z,98806.66
2022-09-20T18:00:25.288Z,98804.94
2022-09-20T18:05:27.378Z,98814.38
2022-09-20T18:10:29.339Z,98811.53
2022-09-20T18:15:32.912Z,98808.94
2022-09-20T18:20:34.883Z,98820.50
2022-09-20T18:25:56.749Z,98816.72
2022-09-20T18:31:05.449Z,98823.81
2022-09-20T18:36:07.764Z,98834.03
2022-09-20T18:41:10.147Z,98832.84
2022-09-20T18:46:13.096Z,98834.19
2022-09-20T18:51:16.064Z,98848.28
2022-09-20T18:56:24.125Z,98845.47
2022-09-20T19:01:55.710Z,98848.81
2022-09-20T19:07:28.106Z,98856.28
2022-09-20T19:12:46.232Z,98854.59
2022-09-20T19:18:06.423Z,98856.28
2022-09-20T19:23:28.861Z,98866.28
2022-09-20T19:28:31.326Z,98873.97
2022-09-20T19:33:33.410Z,98885.00
2022-09-20T19:39:15.923Z,98887.66
2022-09-20T19:44:27.511Z,98891.84
2022-09-20T19:49:55.361Z,98894.03
2022-09-20T19:54:57.772Z,98893.63
2022-09-20T19:59:59.898Z,98900.47
2022-09-20T20:05:03.587Z,98899.09
2022-09-20T20:10:31.482Z,98904.34
2022-09-20T20:15:46.696Z,98902.75
2022-09-20T20:20:50.673Z,98914.41
2022-09-20T20:26:03.061Z,98912.56
2022-09-20T20:31:06.474Z,98929.56
2022-09-20T20:36:17.363Z,98926.66
2022-09-20T20:41:21.511Z,98930.91
2022-09-20T20:46:24.536Z,98928.94
2022-09-20T20:51:27.416Z,98940.56
2022-09-20T20:56:30.289Z,98939.88
2022-09-20T21:01:42.914Z,98944.84
2022-09-20T21:06:45.159Z,98951.09
2022-09-20T21:11:48.608Z,98951.88
2022-09-20T21:16:51.911Z,98946.66
2022-09-20T21:21:53.925Z,98959.53
2022-09-20T21:26:55.824Z,98952.16
2022-09-20T21:31:57.829Z,98954.88
2022-09-20T21:37:00.219Z,98961.03
2022-09-20T21:42:04.479Z,98967.00
2022-09-20T21:47:06.790Z,98964.03
2022-09-20T21:52:08.626Z,98969.44
2022-09-20T21:57:13.712Z,98971.25
2022-09-20T22:02:17.051Z,98968.78
2022-09-20T22:07:19.002Z,98975.50
2022-09-20T22:12:23.941Z,98986.19
2022-09-20T22:17:27.126Z,98987.19
2022-09-20T22:22:28.919Z,98980.59
2022-09-20T22:27:30.767Z,98984.22
2022-09-20T22:32:32.551Z,98979.28
2022-09-20T22:37:34.336Z,98984.25
2022-09-20T22:42:36.166Z,98983.38
2022-09-20T22:47:37.979Z,98989.84
2022-09-20T22:52:39.724Z,98987.56
2022-09-20T22:57:41.474Z,98975.91
2022-09-20T23:02:43.221Z,98989.94
2022-09-20T23:07:48.875Z,98977.06
2022-09-20T23:12:51.596Z,98972.56
2022-09-20T23:17:53.356Z,98989.75
2022-09-20T23:22:55.110Z,98992.91
2022-09-20T23:27:56.855Z,98994.50
2022-09-20T23:32:58.642Z,98997.56
2022-09-20T23:38:00.514Z,98998.09
2022-09-20T23:43:02.396Z,98998.31
2022-09-20T23:48:04.343Z,98992.41
2022-09-20T23:53:06.135Z,98992.22
2022-09-20T23:58:08.062Z,98991.34
